createdAt,value
2017-11-17T00:00:57.216Z,2.34
2017-11-17T00:03:54.961Z,2.05
2017-11-17T00:19:45.812Z,2.40
2017-11-17T00:22:34.704Z,2.43
2017-11-17T00:25:32.737Z,2.49
2017-11-17T00:41:22.536Z,2.69
2017-11-17T00:44:12.236Z,2.79
2017-11-17T00:47:09.927Z,2.93
2017-11-17T00:50:06.867Z,3.03
2017-11-17T00:53:03.884Z,2.98
2017-11-17T00:56:00.919Z,2.99
2017-11-17T00:58:57.947Z,2.95
2017-11-17T01:01:55.916Z,2.96
2017-11-17T01:04:21.722Z,2.90
2017-11-17T01:23:57.652Z,3.10
2017-11-17T01:26:23.433Z,3.12
2017-11-17T01:29:13.100Z,3.07
2017-11-17T01:32:10.917Z,3.07
2017-11-17T01:35:08.043Z,2.94
2017-11-17T01:47:55.807Z,3.00
2017-11-17T01:50:45.653Z,3.05
2017-11-17T01:53:43.065Z,2.89
2017-11-17T01:56:40.684Z,2.77
2017-11-17T01:59:38.165Z,2.68
2017-11-17T02:02:41.636Z,2.63
2017-11-17T02:05:38.785Z,2.60
2017-11-17T02:11:25.656Z,2.64
2017-11-17T02:14:14.852Z,2.66
2017-11-17T02:17:11.606Z,2.73
2017-11-17T02:20:09.334Z,2.77
2017-11-17T02:23:07.182Z,2.84
2017-11-17T02:26:04.843Z,2.84
2017-11-17T02:29:02.609Z,2.87
2017-11-17T02:32:00.164Z,2.80
2017-11-17T02:34:25.974Z,2.80
2017-11-17T02:54:00.296Z,2.75
2017-11-17T02:56:26.122Z,2.76
2017-11-17T02:59:15.616Z,2.70
2017-11-17T03:18:28.026Z,2.98
2017-11-17T03:21:17.089Z,3.08
2017-11-17T03:24:14.213Z,3.22
2017-11-17T03:27:11.351Z,3.39
2017-11-17T03:30:09.086Z,3.55
2017-11-17T03:33:06.033Z,3.64
2017-11-17T03:42:14.676Z,3.69
2017-11-17T03:45:04.414Z,3.74
2017-11-17T03:48:02.106Z,3.80
2017-11-17T04:07:08.493Z,3.39
2017-11-17T04:10:06.463Z,3.28
2017-11-17T04:13:03.556Z,3.34
2017-11-17T04:16:01.104Z,3.18
2017-11-17T04:18:58.314Z,3.09
2017-11-17T04:28:06.852Z,3.01
2017-11-17T04:30:56.680Z,2.95
2017-11-17T04:50:08.188Z,3.06
2017-11-17T05:09:43.036Z,2.91
2017-11-17T05:12:08.840Z,3.05
2017-11-17T05:14:58.219Z,3.10
2017-11-17T05:17:56.277Z,3.20
2017-11-17T05:33:46.137Z,3.44
2017-11-17T05:36:35.699Z,3.45
2017-11-17T05:39:32.925Z,3.38
2017-11-17T05:42:29.892Z,3.17
2017-11-17T05:45:26.923Z,3.25
2017-11-17T05:48:23.966Z,3.33
2017-11-17T05:51:21.069Z,3.45
2017-11-17T05:54:18.863Z,3.47
2017-11-17T06:13:28.749Z,3.85
2017-11-17T06:16:26.620Z,3.89
2017-11-17T06:18:52.409Z,3.97
2017-11-17T06:21:41.826Z,4.04
2017-11-17T06:24:39.868Z,4.11
2017-11-17T06:27:37.736Z,4.06
2017-11-17T06:40:22.559Z,4.02
2017-11-17T06:43:11.520Z,3.98
2017-11-17T06:46:08.716Z,4.03
2017-11-17T06:49:05.569Z,4.09
2017-11-17T06:52:02.540Z,4.22
2017-11-17T06:54:59.460Z,4.27
2017-11-17T06:57:56.377Z,4.21
2017-11-17T07:00:53.124Z,4.23
2017-11-17T07:03:18.917Z,4.14
2017-11-17T07:06:08.450Z,4.15
2017-11-17T07:09:05.471Z,4.22
2017-11-17T07:12:03.303Z,4.31
2017-11-17T07:24:45.561Z,4.25
2017-11-17T07:27:35.052Z,4.31
2017-11-17T07:30:32.803Z,4.27
2017-11-17T07:33:30.658Z,4.33
2017-11-17T07:36:27.597Z,4.37
2017-11-17T07:39:24.541Z,4.44
2017-11-17T07:42:22.383Z,4.40
2017-11-17T07:48:09.884Z,4.11
2017-11-17T07:50:59.277Z,4.08
2017-11-17T07:53:56.683Z,4.12
2017-11-17T07:56:53.960Z,4.01
2017-11-17T07:59:51.801Z,3.76
2017-11-17T08:02:48.735Z,3.64
2017-11-17T08:05:45.679Z,3.62
2017-11-17T08:08:42.724Z,3.55
2017-11-17T08:11:08.525Z,3.71
2017-11-17T08:30:43.552Z,3.89
2017-11-17T08:33:09.348Z,3.88
2017-11-17T08:35:58.640Z,3.94
2017-11-17T08:55:10.917Z,3.79
2017-11-17T08:57:59.816Z,3.81
2017-11-17T09:00:56.740Z,3.87
2017-11-17T09:03:53.818Z,3.97
2017-11-17T09:06:51.643Z,4.03
2017-11-17T09:09:48.820Z,3.98
2017-11-17T09:18:57.135Z,4.23
2017-11-17T09:21:46.796Z,4.44
2017-11-17T09:24:43.737Z,4.56
2017-11-17T09:27:41.071Z,4.73
2017-11-17T09:30:38.940Z,4.90
2017-11-17T09:33:36.988Z,4.89
2017-11-17T09:36:34.848Z,5.01
2017-11-17T09:42:22.509Z,5.09
2017-11-17T09:45:11.343Z,5.18
2017-11-17T09:48:09.091Z,5.26
2017-11-17T10:03:58.820Z,5.52
2017-11-17T10:06:47.881Z,5.45
2017-11-17T10:09:45.115Z,5.32
2017-11-17T10:12:42.138Z,5.37
2017-11-17T10:15:39.396Z,5.45
2017-11-17T10:18:36.467Z,5.55
2017-11-17T10:21:33.589Z,5.58
2017-11-17T10:24:30.476Z,5.60
2017-11-17T10:26:56.260Z,5.65
2017-11-17T10:29:45.213Z,5.53
2017-11-17T10:32:42.332Z,5.56
2017-11-17T10:35:39.132Z,5.65
2017-11-17T10:38:36.102Z,5.68
2017-11-17T10:41:32.995Z,5.67
2017-11-17T10:50:41.272Z,5.26
2017-11-17T11:10:15.804Z,5.64
2017-11-17T11:12:41.604Z,5.70
2017-11-17T11:15:31.408Z,5.69
2017-11-17T11:18:29.207Z,5.77
2017-11-17T11:21:26.908Z,5.72
2017-11-17T11:24:24.788Z,5.86
2017-11-17T11:27:22.121Z,6.00
2017-11-17T11:36:29.836Z,6.19
2017-11-17T11:56:05.642Z,5.92
2017-11-17T11:58:31.437Z,6.00
2017-11-17T12:01:20.813Z,5.94
2017-11-17T12:04:18.652Z,5.77
2017-11-17T12:23:26.426Z,5.80
2017-11-17T12:42:38.112Z,6.49
2017-11-17T12:45:27.180Z,6.64
2017-11-17T12:48:24.192Z,6.70
2017-11-17T12:51:21.536Z,6.78
2017-11-17T12:54:19.173Z,6.93
2017-11-17T13:04:08.933Z,7.01
2017-11-17T13:06:58.764Z,6.93
2017-11-17T13:29:24.306Z,7.10
2017-11-17T13:32:22.168Z,7.05
2017-11-17T13:35:20.119Z,6.99
2017-11-17T13:38:17.217Z,7.06
2017-11-17T13:41:14.176Z,7.14
2017-11-17T13:44:12.122Z,7.13
2017-11-17T13:47:09.140Z,7.06
2017-11-17T14:06:21.357Z,6.48
2017-11-17T14:09:18.367Z,6.40
2017-11-17T14:11:44.128Z,6.42
2017-11-17T14:14:33.788Z,6.34
2017-11-17T14:33:45.230Z,6.06
2017-11-17T14:36:34.898Z,6.17
2017-11-17T14:55:47.075Z,6.42
2017-11-17T15:15:22.972Z,6.66
2017-11-17T15:34:33.624Z,5.82
2017-11-17T15:53:44.986Z,6.50
2017-11-17T15:56:42.908Z,6.54
2017-11-17T15:59:41.007Z,6.57
2017-11-17T16:02:14.892Z,6.58
2017-11-17T16:05:04.781Z,6.60
2017-11-17T16:08:02.292Z,6.63
2017-11-17T16:10:59.683Z,6.65
2017-11-17T16:13:57.232Z,6.63
2017-11-17T16:16:54.774Z,6.69
2017-11-17T16:19:51.928Z,6.70
2017-11-17T16:25:38.872Z,6.66
2017-11-17T16:28:27.897Z,6.61
2017-11-17T16:31:25.740Z,6.59
2017-11-17T16:34:23.087Z,6.64
2017-11-17T16:47:06.689Z,6.63
2017-11-17T17:06:47.921Z,6.70
2017-11-17T17:09:13.713Z,6.66
2017-11-17T17:12:03.111Z,6.73
2017-11-17T17:15:00.147Z,6.71
2017-11-17T17:17:58.104Z,6.74
2017-11-17T17:20:55.145Z,6.78
2017-11-17T17:30:47.328Z,6.73
2017-11-17T17:50:23.756Z,6.65
2017-11-17T17:52:49.524Z,6.59
2017-11-17T17:55:39.161Z,6.60
2017-11-17T18:14:51.972Z,6.22
2017-11-17T18:17:41.867Z,6.08
2017-11-17T18:20:39.780Z,6.03
2017-11-17T18:23:36.951Z,5.99
2017-11-17T18:26:34.737Z,6.12
2017-11-17T18:29:31.893Z,6.24
2017-11-17T18:48:50.519Z,6.40
2017-11-17T19:01:34.494Z,6.33
2017-11-17T19:04:24.177Z,6.26
2017-11-17T19:23:36.818Z,6.13
2017-11-17T19:26:26.885Z,5.90
2017-11-17T19:29:24.823Z,5.71
2017-11-17T19:45:16.027Z,5.51
2017-11-17T19:48:05.344Z,5.37
2017-11-17T20:07:18.512Z,5.42
2017-11-17T20:10:07.965Z,5.46
2017-11-17T20:13:05.081Z,5.63
2017-11-17T20:16:02.860Z,5.72
2017-11-17T20:19:00.685Z,5.81
2017-11-17T20:21:58.560Z,5.79
2017-11-17T20:31:07.296Z,5.95
2017-11-17T20:33:57.101Z,6.04
2017-11-17T20:36:54.894Z,6.17
2017-11-17T20:39:52.859Z,6.18
2017-11-17T20:42:50.686Z,6.23
2017-11-17T20:45:48.653Z,6.06
2017-11-17T20:48:45.889Z,6.01
2017-11-17T20:51:43.672Z,6.06
2017-11-17T21:11:01.637Z,5.93
2017-11-17T21:13:58.658Z,5.96
2017-11-17T21:16:24.422Z,5.91
2017-11-17T21:19:13.481Z,5.90
2017-11-17T21:22:10.617Z,5.89
2017-11-17T21:25:08.492Z,5.88
2017-11-17T21:38:27.658Z,5.82
2017-11-17T21:40:53.489Z,5.77
2017-11-17T21:43:19.287Z,5.86
2017-11-17T21:45:45.065Z,5.89
2017-11-17T21:48:10.844Z,5.91
2017-11-17T21:50:36.628Z,5.90
2017-11-17T21:53:02.416Z,5.88
2017-11-17T21:55:28.195Z,5.90
2017-11-17T21:57:53.969Z,5.91
2017-11-17T22:00:19.740Z,5.99
2017-11-17T22:02:45.516Z,5.98
2017-11-17T22:05:11.277Z,5.94
2017-11-17T22:07:37.053Z,5.96
2017-11-17T22:10:02.851Z,5.96
2017-11-17T22:12:28.600Z,5.97
2017-11-17T22:14:54.375Z,5.94
2017-11-17T22:17:20.156Z,5.97
2017-11-17T22:19:45.933Z,6.01
2017-11-17T22:22:11.709Z,6.04
2017-11-17T22:24:37.482Z,6.05
2017-11-17T22:27:03.247Z,6.18
2017-11-17T22:29:29.023Z,6.18
2017-11-17T22:31:54.802Z,6.22
2017-11-17T22:34:20.539Z,6.25
2017-11-17T22:36:46.300Z,6.27
2017-11-17T22:39:12.068Z,6.25
2017-11-17T22:41:37.832Z,6.19
2017-11-17T22:44:03.609Z,6.07
2017-11-17T22:46:29.347Z,6.08
2017-11-17T22:48:55.118Z,6.00
2017-11-17T22:51:20.895Z,6.02
2017-11-17T22:53:46.632Z,5.96
2017-11-17T22:56:12.405Z,5.99
2017-11-17T22:58:38.178Z,6.03
2017-11-17T23:01:03.921Z,6.01
2017-11-17T23:03:29.684Z,5.75
2017-11-17T23:05:55.441Z,5.57
2017-11-17T23:08:21.192Z,5.56
2017-11-17T23:10:46.960Z,5.63
2017-11-17T23:13:12.700Z,5.79
2017-11-17T23:15:38.455Z,5.89
2017-11-17T23:18:04.217Z,6.01
2017-11-17T23:20:29.972Z,6.06
2017-11-17T23:22:55.757Z,5.98
2017-11-17T23:25:21.504Z,6.13
2017-11-17T23:27:47.254Z,6.24
2017-11-17T23:30:13.027Z,6.24
2017-11-17T23:32:38.784Z,6.19
2017-11-17T23:35:04.635Z,6.21
2017-11-17T23:37:33.416Z,6.23
2017-11-17T23:39:59.252Z,6.24
2017-11-17T23:42:25.033Z,6.26
2017-11-17T23:44:50.808Z,6.21
2017-11-17T23:47:16.570Z,6.22
2017-11-17T23:49:42.361Z,6.24
2017-11-17T23:52:08.143Z,6.22
2017-11-17T23:54:33.936Z,6.23
2017-11-17T23:56:59.686Z,6.24
2017-11-17T23:59:25.459Z,6.27
